createdAt,value
2018-12-20T00:03:27.109Z,8.71
2018-12-20T00:08:33.252Z,8.68
2018-12-20T00:13:38.041Z,8.70
2018-12-20T00:18:43.037Z,8.72
2018-12-20T00:23:48.097Z,8.74
2018-12-20T00:28:52.918Z,8.80
2018-12-20T00:33:57.999Z,8.77
2018-12-20T00:39:03.123Z,8.81
2018-12-20T00:44:07.989Z,8.93
2018-12-20T00:49:13.052Z,8.99
2018-12-20T00:59:55.966Z,8.93
2018-12-20T01:05:12.374Z,8.91
2018-12-20T01:10:17.379Z,8.93
2018-12-20T01:15:22.213Z,8.90
2018-12-20T01:20:27.196Z,8.95
2018-12-20T01:25:33.025Z,8.96
2018-12-20T01:30:38.169Z,9.01
2018-12-20T01:35:43.047Z,8.98
2018-12-20T01:40:47.921Z,8.90
2018-12-20T01:45:52.849Z,8.78
2018-12-20T01:50:57.625Z,8.81
2018-12-20T01:56:02.451Z,8.88
2018-12-20T02:01:07.606Z,8.95
2018-12-20T02:06:12.769Z,8.92
2018-12-20T02:16:49.909Z,8.83
2018-12-20T02:21:54.874Z,8.89
2018-12-20T02:26:59.851Z,8.94
2018-12-20T02:32:04.688Z,8.99
2018-12-20T02:37:09.634Z,9.04
2018-12-20T02:42:14.716Z,9.10
2018-12-20T02:47:21.754Z,9.11
2018-12-20T02:52:26.683Z,8.78
2018-12-20T02:57:31.813Z,8.25
2018-12-20T03:02:36.816Z,8.09
2018-12-20T03:13:19.493Z,8.01
2018-12-20T03:18:28.223Z,8.34
2018-12-20T03:23:33.940Z,8.65
2018-12-20T03:28:39.328Z,8.84
2018-12-20T03:33:44.621Z,8.87
2018-12-20T03:38:49.511Z,8.85
2018-12-20T03:43:54.613Z,8.86
2018-12-20T03:48:59.618Z,8.77
2018-12-20T03:54:04.686Z,8.52
2018-12-20T03:59:09.798Z,8.31
2018-12-20T04:04:14.678Z,8.19
2018-12-20T04:09:19.946Z,8.32
2018-12-20T04:14:25.029Z,8.44
2018-12-20T04:19:30.305Z,8.66
2018-12-20T04:24:35.104Z,8.68
2018-12-20T04:29:40.275Z,8.62
2018-12-20T04:34:45.268Z,8.49
2018-12-20T04:39:50.551Z,8.35
2018-12-20T04:44:55.277Z,8.30
2018-12-20T04:50:00.128Z,8.24
2018-12-20T04:55:05.307Z,8.26
2018-12-20T05:00:12.318Z,8.38
2018-12-20T05:05:17.410Z,8.55
2018-12-20T05:10:22.608Z,8.50
2018-12-20T05:15:27.622Z,8.44
2018-12-20T05:20:32.747Z,8.47
2018-12-20T05:25:37.723Z,8.48
2018-12-20T05:30:42.568Z,8.34
2018-12-20T05:35:47.679Z,8.02
2018-12-20T05:40:52.444Z,7.97
2018-12-20T05:46:04.475Z,8.15
2018-12-20T05:51:04.192Z,8.40
2018-12-20T05:56:08.982Z,8.59
2018-12-20T06:01:13.858Z,8.71
2018-12-20T06:06:18.975Z,8.85
2018-12-20T06:11:35.929Z,8.90
2018-12-20T06:16:40.827Z,8.85
2018-12-20T06:21:45.793Z,8.81
2018-12-20T06:26:50.482Z,8.52
2018-12-20T06:31:55.347Z,8.44
2018-12-20T06:37:00.012Z,8.66
2018-12-20T06:42:04.908Z,8.83
2018-12-20T06:47:09.798Z,8.65
2018-12-20T06:52:14.679Z,8.56
2018-12-20T06:57:19.443Z,8.68
2018-12-20T07:02:24.338Z,8.60
2018-12-20T07:13:01.594Z,8.20
2018-12-20T07:18:06.586Z,8.07
2018-12-20T07:23:11.609Z,8.02
2018-12-20T07:28:16.620Z,8.26
2018-12-20T07:33:21.415Z,8.32
2018-12-20T07:38:26.332Z,8.19
2018-12-20T07:43:31.039Z,8.18
2018-12-20T07:48:35.746Z,8.12
2018-12-20T07:53:40.564Z,7.99
2018-12-20T07:58:45.414Z,7.97
2018-12-20T08:03:50.503Z,7.99
2018-12-20T08:08:55.117Z,8.06
2018-12-20T08:13:59.962Z,8.19
2018-12-20T08:19:04.928Z,8.19
2018-12-20T08:24:09.861Z,8.29
2018-12-20T08:29:14.767Z,8.31
2018-12-20T08:34:19.642Z,8.31
2018-12-20T08:39:24.492Z,8.40
2018-12-20T08:44:29.408Z,8.57
2018-12-20T08:49:34.593Z,8.70
2018-12-20T08:54:39.435Z,8.81
2018-12-20T08:59:44.308Z,8.88
2018-12-20T09:04:49.134Z,8.68
2018-12-20T09:09:53.902Z,8.66
2018-12-20T09:14:58.538Z,8.51
2018-12-20T09:20:03.508Z,8.99
2018-12-20T09:25:08.461Z,9.89
2018-12-20T09:30:13.262Z,10.43
2018-12-20T09:35:18.195Z,9.97
2018-12-20T09:40:23.154Z,9.28
2018-12-20T09:45:27.908Z,8.95
2018-12-20T09:50:32.763Z,8.87
2018-12-20T09:55:37.583Z,8.97
2018-12-20T10:00:42.322Z,8.82
2018-12-20T10:05:47.043Z,8.85
2018-12-20T10:10:51.799Z,9.01
2018-12-20T10:15:56.641Z,10.55
2018-12-20T10:21:01.459Z,11.75
2018-12-20T10:26:06.293Z,12.26
2018-12-20T10:31:11.173Z,12.66
2018-12-20T10:36:16.088Z,12.92
2018-12-20T10:41:21.016Z,13.22
2018-12-20T10:46:25.808Z,12.92
2018-12-20T10:51:31.433Z,12.11
2018-12-20T10:56:36.212Z,11.81
2018-12-20T11:01:45.034Z,12.44
2018-12-20T11:06:53.858Z,11.95
2018-12-20T11:12:02.741Z,12.56
2018-12-20T11:17:07.617Z,11.21
2018-12-20T11:22:12.418Z,11.03
2018-12-20T11:27:17.319Z,11.40
2018-12-20T11:32:22.083Z,10.63
2018-12-20T11:37:26.727Z,10.24
2018-12-20T11:42:31.579Z,9.83
2018-12-20T11:47:36.362Z,10.49
2018-12-20T11:52:42.488Z,10.64
2018-12-20T11:57:47.630Z,10.75
2018-12-20T12:02:52.539Z,11.16
2018-12-20T12:07:57.309Z,10.75
2018-12-20T12:13:02.052Z,10.51
2018-12-20T12:18:06.995Z,11.94
2018-12-20T12:23:11.768Z,12.91
2018-12-20T12:28:16.592Z,13.08
2018-12-20T12:33:21.369Z,12.88
2018-12-20T12:38:26.202Z,13.17
2018-12-20T12:43:31.068Z,13.22
2018-12-20T12:48:36.110Z,13.13
2018-12-20T12:53:41.049Z,12.14
2018-12-20T12:58:46.007Z,11.54
2018-12-20T13:03:50.787Z,11.54
2018-12-20T13:08:55.628Z,10.91
2018-12-20T13:14:00.428Z,10.68
2018-12-20T13:19:05.247Z,10.53
2018-12-20T13:24:10.249Z,10.50
2018-12-20T13:29:15.010Z,10.45
2018-12-20T13:34:20.008Z,10.73
2018-12-20T13:39:24.928Z,11.53
2018-12-20T13:44:29.908Z,11.36
2018-12-20T13:49:34.788Z,11.58
2018-12-20T13:54:39.639Z,11.20
2018-12-20T13:59:44.539Z,11.08
2018-12-20T14:04:49.389Z,11.16
2018-12-20T14:09:54.348Z,11.91
2018-12-20T14:14:59.267Z,11.82
2018-12-20T14:20:04.687Z,11.08
2018-12-20T14:25:09.788Z,11.08
2018-12-20T14:30:14.829Z,10.73
2018-12-20T14:35:19.647Z,10.64
2018-12-20T14:40:24.607Z,10.61
2018-12-20T14:45:29.468Z,10.83
2018-12-20T14:50:34.868Z,10.63
2018-12-20T14:55:40.767Z,10.36
2018-12-20T15:06:24.027Z,10.31
2018-12-20T15:11:29.029Z,10.30
2018-12-20T15:16:33.808Z,10.28
2018-12-20T15:21:38.906Z,10.28
2018-12-20T15:26:43.767Z,10.22
2018-12-20T15:31:53.392Z,10.24
2018-12-20T15:36:55.666Z,10.25
2018-12-20T15:42:00.707Z,10.12
2018-12-20T15:47:05.610Z,10.05
2018-12-20T15:52:10.547Z,9.97
2018-12-20T15:57:15.407Z,9.93
2018-12-20T16:02:20.206Z,9.89
2018-12-20T16:07:25.107Z,9.91
2018-12-20T16:12:29.909Z,9.97
2018-12-20T16:17:35.151Z,10.00
2018-12-20T16:22:39.927Z,10.10
2018-12-20T16:27:44.767Z,10.16
2018-12-20T16:32:49.707Z,10.19
2018-12-20T16:37:54.787Z,10.28
2018-12-20T16:42:59.571Z,10.32
2018-12-20T16:48:04.507Z,10.33
2018-12-20T16:53:09.367Z,10.34
2018-12-20T16:58:14.446Z,10.37
2018-12-20T17:03:19.326Z,10.46
2018-12-20T17:08:24.266Z,10.47
2018-12-20T17:13:29.291Z,10.51
2018-12-20T17:18:35.129Z,10.59
2018-12-20T17:23:40.151Z,10.69
2018-12-20T17:28:45.066Z,10.77
2018-12-20T17:33:50.046Z,10.81
2018-12-20T17:38:54.939Z,10.89
2018-12-20T17:43:59.706Z,10.99
2018-12-20T17:49:04.689Z,11.05
2018-12-20T17:54:09.746Z,11.09
2018-12-20T17:59:14.706Z,11.14
2018-12-20T18:04:19.707Z,11.22
2018-12-20T18:09:24.668Z,11.27
2018-12-20T18:14:29.607Z,11.37
2018-12-20T18:19:38.984Z,11.43
2018-12-20T18:24:42.355Z,11.52
2018-12-20T18:29:47.439Z,11.50
2018-12-20T18:34:52.367Z,11.61
2018-12-20T18:39:57.987Z,11.61
2018-12-20T18:45:03.127Z,11.68
2018-12-20T18:50:09.987Z,11.68
2018-12-20T18:55:14.993Z,11.70
2018-12-20T19:00:19.928Z,11.74
2018-12-20T19:05:24.766Z,11.77
2018-12-20T19:10:31.807Z,11.82
2018-12-20T19:15:36.667Z,11.83
2018-12-20T19:20:41.648Z,11.84
2018-12-20T19:25:46.386Z,11.85
2018-12-20T19:30:51.288Z,11.86
2018-12-20T19:35:56.179Z,11.87
2018-12-20T19:41:01.198Z,11.85
2018-12-20T19:46:06.155Z,11.86
2018-12-20T19:51:10.899Z,11.84
2018-12-20T19:56:15.839Z,11.83
2018-12-20T20:01:20.783Z,11.80
2018-12-20T20:06:25.693Z,11.77
2018-12-20T20:11:30.648Z,11.79
2018-12-20T20:21:57.689Z,11.75
2018-12-20T20:27:02.548Z,11.72
2018-12-20T20:32:07.529Z,11.69
2018-12-20T20:37:12.373Z,11.64
2018-12-20T20:42:17.168Z,11.62
2018-12-20T20:47:21.965Z,11.58
2018-12-20T20:52:26.698Z,11.56
2018-12-20T20:57:31.568Z,11.55
2018-12-20T21:02:36.508Z,11.56
2018-12-20T21:07:41.778Z,11.52
2018-12-20T21:12:46.703Z,11.55
2018-12-20T21:17:51.479Z,11.52
2018-12-20T21:22:56.399Z,11.48
2018-12-20T21:28:01.223Z,11.43
2018-12-20T21:33:06.319Z,11.37
2018-12-20T21:38:11.225Z,11.36
2018-12-20T21:43:16.118Z,11.37
2018-12-20T21:48:21.073Z,11.36
2018-12-20T21:53:25.781Z,11.36
2018-12-20T21:58:30.714Z,11.39
2018-12-20T22:03:35.943Z,11.40
2018-12-20T22:08:40.809Z,11.40
2018-12-20T22:13:45.551Z,11.40
2018-12-20T22:18:50.349Z,11.40
2018-12-20T22:23:55.161Z,11.43
2018-12-20T22:28:59.938Z,11.41
2018-12-20T22:34:04.864Z,11.46
2018-12-20T22:39:09.569Z,11.46
2018-12-20T22:44:14.484Z,11.48
2018-12-20T22:49:19.493Z,11.49
2018-12-20T22:54:24.324Z,11.53
2018-12-20T22:59:29.043Z,11.52
2018-12-20T23:04:33.933Z,11.52
2018-12-20T23:09:38.739Z,11.53
2018-12-20T23:14:43.645Z,11.56
2018-12-20T23:19:49.138Z,11.60
2018-12-20T23:24:54.095Z,11.61
2018-12-20T23:29:58.861Z,11.64
2018-12-20T23:35:03.876Z,11.67
2018-12-20T23:40:08.618Z,11.74
2018-12-20T23:45:13.473Z,11.76
2018-12-20T23:50:18.423Z,11.80
2018-12-20T23:55:23.366Z,11.86
